sensor_id;sensor_type;location;lat;lon;timestamp;pressure;altitude;pressure_sealevel;temperature;humidity
43683;BME280;29285;52.128;21.060;2023-05-24T00:03:06;99966.15;;;19.48;64.67
43683;BME280;29285;52.128;21.060;2023-05-24T00:08:07;99965.34;;;19.46;64.86
43683;BME280;29285;52.128;21.060;2023-05-24T00:13:08;99959.81;;;19.41;64.94
43683;BME280;29285;52.128;21.060;2023-05-24T00:18:09;99958.14;;;19.37;65.00
43683;BME280;29285;52.128;21.060;2023-05-24T00:23:11;99951.20;;;19.32;65.17
43683;BME280;29285;52.128;21.060;2023-05-24T00:28:12;99952.17;;;19.27;65.27
43683;BME280;29285;52.128;21.060;2023-05-24T00:33:13;99948.45;;;19.25;65.40
43683;BME280;29285;52.128;21.060;2023-05-24T00:38:14;99946.55;;;19.24;65.52
43683;BME280;29285;52.128;21.060;2023-05-24T00:43:16;99942.02;;;19.24;65.75
43683;BME280;29285;52.128;21.060;2023-05-24T00:48:17;99940.69;;;19.22;65.97
43683;BME280;29285;52.128;21.060;2023-05-24T00:53:19;99941.05;;;19.19;65.94
43683;BME280;29285;52.128;21.060;2023-05-24T00:58:20;99940.12;;;19.17;66.12
43683;BME280;29285;52.128;21.060;2023-05-24T01:03:27;99942.80;;;19.13;66.13
43683;BME280;29285;52.128;21.060;2023-05-24T01:08:42;99942.02;;;19.08;66.21
43683;BME280;29285;52.128;21.060;2023-05-24T01:14:03;99939.67;;;19.03;66.32
43683;BME280;29285;52.128;21.060;2023-05-24T01:24:40;99939.36;;;18.93;66.44
43683;BME280;29285;52.128;21.060;2023-05-24T01:29:44;99941.19;;;18.88;66.55
43683;BME280;29285;52.128;21.060;2023-05-24T01:34:53;99946.45;;;18.85;66.81
43683;BME280;29285;52.128;21.060;2023-05-24T01:39:55;99949.34;;;18.84;66.89
43683;BME280;29285;52.128;21.060;2023-05-24T01:45:03;99949.13;;;18.82;67.03
43683;BME280;29285;52.128;21.060;2023-05-24T01:50:22;99944.39;;;18.78;67.16
43683;BME280;29285;52.128;21.060;2023-05-24T01:55:26;99948.45;;;18.75;67.21
43683;BME280;29285;52.128;21.060;2023-05-24T02:00:27;99948.15;;;18.71;67.32
43683;BME280;29285;52.128;21.060;2023-05-24T02:05:31;99942.52;;;18.68;67.53
43683;BME280;29285;52.128;21.060;2023-05-24T02:10:33;99944.98;;;18.65;67.61
43683;BME280;29285;52.128;21.060;2023-05-24T02:15:34;99949.36;;;18.61;67.79
43683;BME280;29285;52.128;21.060;2023-05-24T02:20:39;99949.81;;;18.57;67.83
43683;BME280;29285;52.128;21.060;2023-05-24T02:25:40;99956.07;;;18.51;67.89
43683;BME280;29285;52.128;21.060;2023-05-24T02:30:41;99951.42;;;18.46;68.11
43683;BME280;29285;52.128;21.060;2023-05-24T02:35:44;99952.39;;;18.42;68.16
43683;BME280;29285;52.128;21.060;2023-05-24T02:40:45;99951.11;;;18.36;68.24
43683;BME280;29285;52.128;21.060;2023-05-24T02:45:46;99951.16;;;18.31;68.38
43683;BME280;29285;52.128;21.060;2023-05-24T02:50:48;99946.21;;;18.29;68.57
43683;BME280;29285;52.128;21.060;2023-05-24T02:55:49;99948.02;;;18.28;68.74
43683;BME280;29285;52.128;21.060;2023-05-24T03:00:50;99952.08;;;18.28;68.90
43683;BME280;29285;52.128;21.060;2023-05-24T03:05:52;99953.92;;;18.29;69.13
43683;BME280;29285;52.128;21.060;2023-05-24T03:10:53;99960.84;;;18.28;69.21
43683;BME280;29285;52.128;21.060;2023-05-24T03:15:54;99966.13;;;18.27;69.26
43683;BME280;29285;52.128;21.060;2023-05-24T03:20:55;99966.21;;;18.26;69.45
43683;BME280;29285;52.128;21.060;2023-05-24T03:25:56;99963.52;;;18.27;69.68
43683;BME280;29285;52.128;21.060;2023-05-24T03:30:57;99963.88;;;18.30;69.96
43683;BME280;29285;52.128;21.060;2023-05-24T03:35:58;99964.53;;;18.31;70.09
43683;BME280;29285;52.128;21.060;2023-05-24T03:41:00;99969.15;;;18.33;70.25
43683;BME280;29285;52.128;21.060;2023-05-24T03:46:01;99973.39;;;18.36;70.31
43683;BME280;29285;52.128;21.060;2023-05-24T03:51:02;99975.71;;;18.38;70.46
43683;BME280;29285;52.128;21.060;2023-05-24T03:56:04;99980.08;;;18.43;70.66
43683;BME280;29285;52.128;21.060;2023-05-24T04:01:05;99983.54;;;18.44;70.74
43683;BME280;29285;52.128;21.060;2023-05-24T04:06:06;99990.60;;;18.43;70.83
43683;BME280;29285;52.128;21.060;2023-05-24T04:11:07;99992.98;;;18.44;70.86
43683;BME280;29285;52.128;21.060;2023-05-24T04:16:08;99996.41;;;18.46;71.05
43683;BME280;29285;52.128;21.060;2023-05-24T04:21:10;99997.90;;;18.47;71.11
43683;BME280;29285;52.128;21.060;2023-05-24T04:26:12;100005.40;;;18.45;71.03
43683;BME280;29285;52.128;21.060;2023-05-24T04:31:13;100005.95;;;18.45;71.11
43683;BME280;29285;52.128;21.060;2023-05-24T04:36:15;100013.81;;;18.45;71.20
43683;BME280;29285;52.128;21.060;2023-05-24T04:41:17;100017.98;;;18.46;71.28
43683;BME280;29285;52.128;21.060;2023-05-24T04:46:18;100016.55;;;18.50;71.52
43683;BME280;29285;52.128;21.060;2023-05-24T04:51:21;100022.65;;;18.55;71.76
43683;BME280;29285;52.128;21.060;2023-05-24T04:56:23;100029.70;;;18.60;71.94
43683;BME280;29285;52.128;21.060;2023-05-24T05:01:24;100029.62;;;18.62;72.10
43683;BME280;29285;52.128;21.060;2023-05-24T05:06:25;100032.90;;;18.69;72.43
43683;BME280;29285;52.128;21.060;2023-05-24T05:11:26;100037.27;;;18.73;72.61
43683;BME280;29285;52.128;21.060;2023-05-24T05:16:27;100038.10;;;18.71;72.58
43683;BME280;29285;52.128;21.060;2023-05-24T05:21:28;100046.38;;;18.70;72.52
43683;BME280;29285;52.128;21.060;2023-05-24T05:26:29;100052.34;;;18.80;72.85
43683;BME280;29285;52.128;21.060;2023-05-24T05:31:31;100055.45;;;18.84;72.90
43683;BME280;29285;52.128;21.060;2023-05-24T05:36:32;100048.98;;;18.93;73.16
43683;BME280;29285;52.128;21.060;2023-05-24T05:41:32;100056.20;;;19.03;73.50
43683;BME280;29285;52.128;21.060;2023-05-24T05:46:33;100057.36;;;19.17;73.70
43683;BME280;29285;52.128;21.060;2023-05-24T05:51:44;100060.45;;;19.25;73.95
43683;BME280;29285;52.128;21.060;2023-05-24T05:56:45;100066.02;;;19.26;73.95
43683;BME280;29285;52.128;21.060;2023-05-24T06:01:47;100073.09;;;19.32;74.15
43683;BME280;29285;52.128;21.060;2023-05-24T06:06:48;100076.79;;;19.41;74.38
43683;BME280;29285;52.128;21.060;2023-05-24T06:11:49;100080.21;;;19.49;74.58
43683;BME280;29285;52.128;21.060;2023-05-24T06:16:51;100083.40;;;19.52;74.68
43683;BME280;29285;52.128;21.060;2023-05-24T06:21:54;100089.67;;;19.59;74.87
43683;BME280;29285;52.128;21.060;2023-05-24T06:26:55;100095.96;;;19.68;75.10
43683;BME280;29285;52.128;21.060;2023-05-24T06:31:57;100102.09;;;19.69;75.12
43683;BME280;29285;52.128;21.060;2023-05-24T06:36:58;100107.94;;;19.65;75.03
43683;BME280;29285;52.128;21.060;2023-05-24T06:41:59;100120.20;;;19.73;75.18
43683;BME280;29285;52.128;21.060;2023-05-24T06:47:02;100121.77;;;19.91;75.58
43683;BME280;29285;52.128;21.060;2023-05-24T06:52:03;100121.55;;;20.14;76.01
43683;BME280;29285;52.128;21.060;2023-05-24T06:57:04;100127.53;;;20.35;76.38
43683;BME280;29285;52.128;21.060;2023-05-24T07:02:05;100123.92;;;20.51;76.59
43683;BME280;29285;52.128;21.060;2023-05-24T07:07:08;100128.61;;;20.58;76.62
43683;BME280;29285;52.128;21.060;2023-05-24T07:12:12;100133.83;;;20.65;76.60
43683;BME280;29285;52.128;21.060;2023-05-24T07:17:13;100137.63;;;20.84;77.04
43683;BME280;29285;52.128;21.060;2023-05-24T07:22:15;100144.38;;;21.09;77.41
43683;BME280;29285;52.128;21.060;2023-05-24T07:27:19;100147.56;;;21.19;77.50
43683;BME280;29285;52.128;21.060;2023-05-24T07:32:22;100153.61;;;21.30;77.50
43683;BME280;29285;52.128;21.060;2023-05-24T07:37:23;100156.39;;;21.53;77.96
43683;BME280;29285;52.128;21.060;2023-05-24T07:42:24;100163.84;;;21.74;78.26
43683;BME280;29285;52.128;21.060;2023-05-24T07:47:25;100166.84;;;21.77;78.14
43683;BME280;29285;52.128;21.060;2023-05-24T07:52:27;100171.37;;;21.78;78.03
43683;BME280;29285;52.128;21.060;2023-05-24T07:57:28;100175.81;;;21.91;78.17
43683;BME280;29285;52.128;21.060;2023-05-24T08:02:30;100178.27;;;22.05;78.45
43683;BME280;29285;52.128;21.060;2023-05-24T08:07:31;100180.08;;;22.18;78.57
43683;BME280;29285;52.128;21.060;2023-05-24T08:12:33;100182.40;;;22.23;78.48
43683;BME280;29285;52.128;21.060;2023-05-24T08:17:35;100184.15;;;22.39;78.73
43683;BME280;29285;52.128;21.060;2023-05-24T08:22:36;100185.46;;;22.40;78.61
43683;BME280;29285;52.128;21.060;2023-05-24T08:27:37;100193.05;;;22.56;78.87
43683;BME280;29285;52.128;21.060;2023-05-24T08:32:38;100201.19;;;22.82;79.40
43683;BME280;29285;52.128;21.060;2023-05-24T08:37:39;100199.11;;;22.97;79.63
43683;BME280;29285;52.128;21.060;2023-05-24T08:42:41;100200.70;;;23.12;79.70
43683;BME280;29285;52.128;21.060;2023-05-24T08:47:42;100200.01;;;23.30;80.02
43683;BME280;29285;52.128;21.060;2023-05-24T08:52:44;100202.71;;;23.47;80.16
43683;BME280;29285;52.128;21.060;2023-05-24T08:57:46;100201.70;;;23.63;80.38
43683;BME280;29285;52.128;21.060;2023-05-24T09:02:48;100207.52;;;23.76;80.47
43683;BME280;29285;52.128;21.060;2023-05-24T09:07:50;100212.48;;;23.80;80.58
43683;BME280;29285;52.128;21.060;2023-05-24T09:12:55;100208.79;;;23.87;80.63
43683;BME280;29285;52.128;21.060;2023-05-24T09:17:57;100211.48;;;23.94;80.55
43683;BME280;29285;52.128;21.060;2023-05-24T09:22:58;100217.94;;;23.95;80.67
43683;BME280;29285;52.128;21.060;2023-05-24T09:28:05;100220.77;;;23.96;80.42
43683;BME280;29285;52.128;21.060;2023-05-24T09:33:06;100232.25;;;23.98;80.54
43683;BME280;29285;52.128;21.060;2023-05-24T09:38:15;100233.60;;;24.02;80.52
43683;BME280;29285;52.128;21.060;2023-05-24T09:43:18;100236.91;;;24.10;80.67
43683;BME280;29285;52.128;21.060;2023-05-24T09:48:19;100237.46;;;24.21;80.81
43683;BME280;29285;52.128;21.060;2023-05-24T09:53:22;100238.68;;;24.38;81.04
43683;BME280;29285;52.128;21.060;2023-05-24T09:58:28;100242.11;;;24.52;81.15
43683;BME280;29285;52.128;21.060;2023-05-24T10:03:29;100239.98;;;24.54;80.92
43683;BME280;29285;52.128;21.060;2023-05-24T10:08:32;100241.45;;;24.18;79.94
43683;BME280;29285;52.128;21.060;2023-05-24T10:13:34;100241.98;;;24.03;79.54
43683;BME280;29285;52.128;21.060;2023-05-24T10:18:37;100243.70;;;24.02;79.76
43683;BME280;29285;52.128;21.060;2023-05-24T10:23:42;100251.19;;;23.84;79.40
43683;BME280;29285;52.128;21.060;2023-05-24T10:28:47;100255.48;;;23.73;79.14
43683;BME280;29285;52.128;21.060;2023-05-24T10:33:49;100253.27;;;23.60;78.97
43683;BME280;29285;52.128;21.060;2023-05-24T10:38:52;100257.61;;;23.56;78.96
43683;BME280;29285;52.128;21.060;2023-05-24T10:43:56;100256.09;;;23.52;78.90
43683;BME280;29285;52.128;21.060;2023-05-24T10:49:00;100252.39;;;23.60;79.05
43683;BME280;29285;52.128;21.060;2023-05-24T10:54:15;100260.20;;;23.79;79.40
43683;BME280;29285;52.128;21.060;2023-05-24T10:59:28;100265.89;;;23.94;79.64
43683;BME280;29285;52.128;21.060;2023-05-24T11:04:31;100267.52;;;24.03;79.60
43683;BME280;29285;52.128;21.060;2023-05-24T11:09:33;100271.89;;;24.09;79.59
43683;BME280;29285;52.128;21.060;2023-05-24T11:14:38;100277.86;;;24.19;79.64
43683;BME280;29285;52.128;21.060;2023-05-24T11:19:48;100280.39;;;24.23;79.52
43683;BME280;29285;52.128;21.060;2023-05-24T11:24:51;100278.67;;;24.23;79.39
43683;BME280;29285;52.128;21.060;2023-05-24T11:29:53;100277.47;;;24.29;79.57
43683;BME280;29285;52.128;21.060;2023-05-24T11:34:55;100278.21;;;24.55;79.90
43683;BME280;29285;52.128;21.060;2023-05-24T11:39:57;100274.30;;;24.74;80.11
43683;BME280;29285;52.128;21.060;2023-05-24T11:44:59;100271.08;;;24.84;80.10
43683;BME280;29285;52.128;21.060;2023-05-24T11:50:01;100270.33;;;24.89;80.05
43683;BME280;29285;52.128;21.060;2023-05-24T11:55:02;100268.83;;;25.04;80.17
43683;BME280;29285;52.128;21.060;2023-05-24T12:00:04;100268.64;;;25.25;80.36
43683;BME280;29285;52.128;21.060;2023-05-24T12:05:11;100266.73;;;25.47;80.67
43683;BME280;29285;52.128;21.060;2023-05-24T12:10:14;100266.74;;;25.67;80.70
43683;BME280;29285;52.128;21.060;2023-05-24T12:15:16;100269.73;;;25.99;80.95
43683;BME280;29285;52.128;21.060;2023-05-24T12:20:18;100266.98;;;26.15;80.85
43683;BME280;29285;52.128;21.060;2023-05-24T12:25:21;100265.01;;;26.30;80.66
43683;BME280;29285;52.128;21.060;2023-05-24T12:30:24;100260.17;;;26.54;80.84
43683;BME280;29285;52.128;21.060;2023-05-24T18:13:48;100469.40;;;20.02;83.18
43683;BME280;29285;52.128;21.060;2023-05-24T18:18:51;100476.50;;;19.90;83.32
43683;BME280;29285;52.128;21.060;2023-05-24T18:24:00;100489.54;;;19.73;83.38
43683;BME280;29285;52.128;21.060;2023-05-24T18:29:02;100498.42;;;19.58;83.54
43683;BME280;29285;52.128;21.060;2023-05-24T18:34:03;100508.80;;;19.44;83.64
43683;BME280;29285;52.128;21.060;2023-05-24T18:39:04;100518.83;;;19.30;83.84
43683;BME280;29285;52.128;21.060;2023-05-24T18:44:05;100527.66;;;19.18;84.08
43683;BME280;29285;52.128;21.060;2023-05-24T18:49:06;100536.01;;;19.05;84.21
43683;BME280;29285;52.128;21.060;2023-05-24T18:54:10;100543.09;;;18.93;84.42
43683;BME280;29285;52.128;21.060;2023-05-24T18:59:13;100548.33;;;18.82;84.49
43683;BME280;29285;52.128;21.060;2023-05-24T19:04:16;100555.90;;;18.78;84.87
43683;BME280;29285;52.128;21.060;2023-05-24T19:09:17;100552.83;;;18.69;85.13
43683;BME280;29285;52.128;21.060;2023-05-24T19:14:18;100559.36;;;18.64;85.41
43683;BME280;29285;52.128;21.060;2023-05-24T19:19:21;100558.88;;;18.59;85.70
43683;BME280;29285;52.128;21.060;2023-05-24T19:24:22;100559.73;;;18.52;85.92
43683;BME280;29285;52.128;21.060;2023-05-24T19:29:24;100570.40;;;18.49;86.21
43683;BME280;29285;52.128;21.060;2023-05-24T19:34:25;100575.86;;;18.49;86.53
43683;BME280;29285;52.128;21.060;2023-05-24T19:39:28;100580.74;;;18.42;86.80
43683;BME280;29285;52.128;21.060;2023-05-24T19:44:29;100590.08;;;18.33;86.92
43683;BME280;29285;52.128;21.060;2023-05-24T19:49:31;100595.89;;;18.29;87.15
43683;BME280;29285;52.128;21.060;2023-05-24T19:54:32;100596.08;;;18.24;87.47
43683;BME280;29285;52.128;21.060;2023-05-24T19:59:33;100600.16;;;18.19;87.67
43683;BME280;29285;52.128;21.060;2023-05-24T20:04:34;100603.55;;;18.05;87.58
43683;BME280;29285;52.128;21.060;2023-05-24T20:09:41;100603.69;;;17.89;87.55
43683;BME280;29285;52.128;21.060;2023-05-24T20:14:42;100604.29;;;17.75;87.69
43683;BME280;29285;52.128;21.060;2023-05-24T20:19:43;100597.79;;;17.66;87.92
43683;BME280;29285;52.128;21.060;2023-05-24T20:24:44;100591.82;;;17.53;87.93
43683;BME280;29285;52.128;21.060;2023-05-24T20:29:46;100593.73;;;17.41;88.04
43683;BME280;29285;52.128;21.060;2023-05-24T20:34:47;100602.26;;;17.34;88.31
43683;BME280;29285;52.128;21.060;2023-05-24T20:39:49;100612.61;;;17.33;88.71
43683;BME280;29285;52.128;21.060;2023-05-24T20:44:50;100606.38;;;17.32;88.93
43683;BME280;29285;52.128;21.060;2023-05-24T20:49:51;100606.92;;;17.22;89.06
43683;BME280;29285;52.128;21.060;2023-05-24T20:54:52;100611.80;;;17.14;89.19
43683;BME280;29285;52.128;21.060;2023-05-24T20:59:54;100613.00;;;17.05;89.35
43683;BME280;29285;52.128;21.060;2023-05-24T21:04:55;100611.83;;;17.04;89.77
43683;BME280;29285;52.128;21.060;2023-05-24T21:09:57;100608.30;;;16.99;90.00
43683;BME280;29285;52.128;21.060;2023-05-24T21:14:58;100613.39;;;16.94;90.20
43683;BME280;29285;52.128;21.060;2023-05-24T21:19:59;100617.15;;;16.88;90.33
43683;BME280;29285;52.128;21.060;2023-05-24T21:25:01;100627.30;;;16.88;90.64
43683;BME280;29285;52.128;21.060;2023-05-24T21:30:02;100630.86;;;16.82;90.81
43683;BME280;29285;52.128;21.060;2023-05-24T21:35:04;100634.65;;;16.74;90.90
43683;BME280;29285;52.128;21.060;2023-05-24T21:40:05;100638.41;;;16.67;91.02
43683;BME280;29285;52.128;21.060;2023-05-24T21:45:07;100636.66;;;16.67;91.38
43683;BME280;29285;52.128;21.060;2023-05-24T21:50:08;100641.98;;;16.60;91.50
43683;BME280;29285;52.128;21.060;2023-05-24T21:55:09;100638.76;;;16.52;91.58
43683;BME280;29285;52.128;21.060;2023-05-24T22:00:11;100639.89;;;16.45;91.79
43683;BME280;29285;52.128;21.060;2023-05-24T22:05:13;100647.60;;;16.40;91.95
43683;BME280;29285;52.128;21.060;2023-05-24T22:10:14;100648.27;;;16.36;92.16
43683;BME280;29285;52.128;21.060;2023-05-24T22:15:15;100651.68;;;16.28;92.35
43683;BME280;29285;52.128;21.060;2023-05-24T22:20:16;100658.13;;;16.19;92.48
43683;BME280;29285;52.128;21.060;2023-05-24T22:25:19;100664.52;;;16.12;92.60
43683;BME280;29285;52.128;21.060;2023-05-24T22:30:20;100669.48;;;16.04;92.76
43683;BME280;29285;52.128;21.060;2023-05-24T22:35:22;100668.67;;;15.96;92.92
43683;BME280;29285;52.128;21.060;2023-05-24T22:40:23;100662.48;;;15.87;93.01
43683;BME280;29285;52.128;21.060;2023-05-24T22:45:24;100665.02;;;15.79;93.20
43683;BME280;29285;52.128;21.060;2023-05-24T22:50:25;100659.42;;;15.73;93.40
43683;BME280;29285;52.128;21.060;2023-05-24T22:55:27;100657.48;;;15.63;93.44
43683;BME280;29285;52.128;21.060;2023-05-24T23:00:28;100658.74;;;15.56;93.67
43683;BME280;29285;52.128;21.060;2023-05-24T23:05:28;100655.71;;;15.52;93.93
43683;BME280;29285;52.128;21.060;2023-05-24T23:10:30;100657.11;;;15.52;94.21
43683;BME280;29285;52.128;21.060;2023-05-24T23:15:31;100660.55;;;15.49;94.45
43683;BME280;29285;52.128;21.060;2023-05-24T23:20:32;100666.95;;;15.39;94.46
43683;BME280;29285;52.128;21.060;2023-05-24T23:25:39;100669.59;;;15.28;94.48
43683;BME280;29285;52.128;21.060;2023-05-24T23:30:41;100674.89;;;15.19;94.63
43683;BME280;29285;52.128;21.060;2023-05-24T23:35:42;100683.27;;;15.14;94.86
43683;BME280;29285;52.128;21.060;2023-05-24T23:40:43;100686.01;;;15.10;95.00
43683;BME280;29285;52.128;21.060;2023-05-24T23:45:45;100682.98;;;15.00;95.12
43683;BME280;29285;52.128;21.060;2023-05-24T23:50:46;100686.13;;;14.87;95.21
43683;BME280;29285;52.128;21.060;2023-05-24T23:55:47;100689.02;;;14.84;95.49
